sensor_id;sensor_type;location;lat;lon;timestamp;P1;durP1;ratioP1;P2;durP2;ratioP2
42186;SDS011;27858;51.414;0.018;2024-02-21T00:02:21;9.75;;;2.70;;
42186;SDS011;27858;51.414;0.018;2024-02-21T00:04:48;6.45;;;2.22;;
42186;SDS011;27858;51.414;0.018;2024-02-21T00:07:15;9.18;;;2.28;;
42186;SDS011;27858;51.414;0.018;2024-02-21T00:09:42;7.07;;;2.38;;
42186;SDS011;27858;51.414;0.018;2024-02-21T00:12:09;10.77;;;2.53;;
42186;SDS011;27858;51.414;0.018;2024-02-21T00:14:36;9.82;;;1.98;;
42186;SDS011;27858;51.414;0.018;2024-02-21T00:17:03;6.78;;;1.90;;
42186;SDS011;27858;51.414;0.018;2024-02-21T00:19:30;10.38;;;2.30;;
42186;SDS011;27858;51.414;0.018;2024-02-21T00:21:56;8.23;;;2.58;;
42186;SDS011;27858;51.414;0.018;2024-02-21T00:24:23;13.10;;;2.90;;
42186;SDS011;27858;51.414;0.018;2024-02-21T00:26:50;11.93;;;2.28;;
42186;SDS011;27858;51.414;0.018;2024-02-21T00:29:17;14.35;;;3.00;;
42186;SDS011;27858;51.414;0.018;2024-02-21T00:31:44;8.68;;;2.67;;
42186;SDS011;27858;51.414;0.018;2024-02-21T00:34:11;8.45;;;2.90;;
42186;SDS011;27858;51.414;0.018;2024-02-21T00:36:39;8.60;;;2.20;;
42186;SDS011;27858;51.414;0.018;2024-02-21T00:39:06;4.35;;;1.88;;
42186;SDS011;27858;51.414;0.018;2024-02-21T00:41:33;8.85;;;2.13;;
42186;SDS011;27858;51.414;0.018;2024-02-21T00:44:00;5.45;;;2.67;;
42186;SDS011;27858;51.414;0.018;2024-02-21T00:46:26;4.72;;;1.80;;
42186;SDS011;27858;51.414;0.018;2024-02-21T00:48:53;8.85;;;2.88;;
42186;SDS011;27858;51.414;0.018;2024-02-21T00:51:20;11.07;;;2.58;;
42186;SDS011;27858;51.414;0.018;2024-02-21T00:53:47;12.98;;;2.00;;
42186;SDS011;27858;51.414;0.018;2024-02-21T00:56:15;11.27;;;3.50;;
42186;SDS011;27858;51.414;0.018;2024-02-21T00:58:42;6.38;;;2.67;;
42186;SDS011;27858;51.414;0.018;2024-02-21T01:01:09;12.45;;;4.82;;
42186;SDS011;27858;51.414;0.018;2024-02-21T01:03:38;7.55;;;2.58;;
42186;SDS011;27858;51.414;0.018;2024-02-21T01:06:06;10.80;;;2.65;;
42186;SDS011;27858;51.414;0.018;2024-02-21T01:08:33;11.65;;;3.00;;
42186;SDS011;27858;51.414;0.018;2024-02-21T01:11:00;10.60;;;2.45;;
42186;SDS011;27858;51.414;0.018;2024-02-21T01:13:27;10.18;;;1.98;;
42186;SDS011;27858;51.414;0.018;2024-02-21T01:15:54;13.32;;;2.65;;
42186;SDS011;27858;51.414;0.018;2024-02-21T01:18:20;6.25;;;2.58;;
42186;SDS011;27858;51.414;0.018;2024-02-21T01:20:47;8.73;;;2.15;;
42186;SDS011;27858;51.414;0.018;2024-02-21T01:23:15;9.23;;;1.90;;
42186;SDS011;27858;51.414;0.018;2024-02-21T01:25:41;10.70;;;2.25;;
42186;SDS011;27858;51.414;0.018;2024-02-21T01:28:09;10.77;;;3.08;;
42186;SDS011;27858;51.414;0.018;2024-02-21T01:30:35;11.90;;;2.42;;
42186;SDS011;27858;51.414;0.018;2024-02-21T01:33:02;9.98;;;2.53;;
42186;SDS011;27858;51.414;0.018;2024-02-21T01:35:30;11.30;;;1.45;;
42186;SDS011;27858;51.414;0.018;2024-02-21T01:37:57;11.48;;;2.15;;
42186;SDS011;27858;51.414;0.018;2024-02-21T01:40:24;5.90;;;1.92;;
42186;SDS011;27858;51.414;0.018;2024-02-21T01:42:51;8.88;;;2.78;;
42186;SDS011;27858;51.414;0.018;2024-02-21T01:45:20;10.25;;;3.15;;
42186;SDS011;27858;51.414;0.018;2024-02-21T01:47:47;8.02;;;3.22;;
42186;SDS011;27858;51.414;0.018;2024-02-21T01:50:15;10.68;;;2.63;;
42186;SDS011;27858;51.414;0.018;2024-02-21T01:52:43;8.30;;;2.58;;
42186;SDS011;27858;51.414;0.018;2024-02-21T01:55:14;10.48;;;2.63;;
42186;SDS011;27858;51.414;0.018;2024-02-21T01:57:43;12.70;;;3.50;;
42186;SDS011;27858;51.414;0.018;2024-02-21T02:00:11;9.93;;;2.45;;
42186;SDS011;27858;51.414;0.018;2024-02-21T02:02:40;11.52;;;3.30;;
42186;SDS011;27858;51.414;0.018;2024-02-21T02:05:08;14.48;;;3.53;;
42186;SDS011;27858;51.414;0.018;2024-02-21T02:07:35;12.18;;;3.42;;
42186;SDS011;27858;51.414;0.018;2024-02-21T02:10:02;5.40;;;1.65;;
42186;SDS011;27858;51.414;0.018;2024-02-21T02:12:30;11.02;;;2.30;;
42186;SDS011;27858;51.414;0.018;2024-02-21T02:15:00;12.25;;;3.25;;
42186;SDS011;27858;51.414;0.018;2024-02-21T02:17:30;14.73;;;3.88;;
42186;SDS011;27858;51.414;0.018;2024-02-21T02:19:57;13.68;;;3.20;;
42186;SDS011;27858;51.414;0.018;2024-02-21T02:22:28;7.22;;;2.67;;
42186;SDS011;27858;51.414;0.018;2024-02-21T02:24:58;7.05;;;1.98;;
42186;SDS011;27858;51.414;0.018;2024-02-21T02:27:25;6.93;;;2.50;;
42186;SDS011;27858;51.414;0.018;2024-02-21T02:29:52;15.30;;;3.58;;
42186;SDS011;27858;51.414;0.018;2024-02-21T02:32:19;9.77;;;2.40;;
42186;SDS011;27858;51.414;0.018;2024-02-21T02:34:46;9.13;;;2.67;;
42186;SDS011;27858;51.414;0.018;2024-02-21T02:37:13;22.02;;;3.97;;
42186;SDS011;27858;51.414;0.018;2024-02-21T02:39:39;10.40;;;3.00;;
42186;SDS011;27858;51.414;0.018;2024-02-21T02:42:06;11.93;;;2.42;;
42186;SDS011;27858;51.414;0.018;2024-02-21T02:44:35;6.57;;;2.42;;
42186;SDS011;27858;51.414;0.018;2024-02-21T02:47:01;17.35;;;3.63;;
42186;SDS011;27858;51.414;0.018;2024-02-21T02:49:28;7.25;;;2.42;;
42186;SDS011;27858;51.414;0.018;2024-02-21T02:51:55;12.93;;;2.85;;
42186;SDS011;27858;51.414;0.018;2024-02-21T02:54:22;10.85;;;3.08;;
42186;SDS011;27858;51.414;0.018;2024-02-21T02:56:49;13.27;;;3.60;;
42186;SDS011;27858;51.414;0.018;2024-02-21T02:59:16;6.70;;;2.25;;
42186;SDS011;27858;51.414;0.018;2024-02-21T03:01:43;10.73;;;3.17;;
42186;SDS011;27858;51.414;0.018;2024-02-21T03:04:10;12.52;;;2.60;;
42186;SDS011;27858;51.414;0.018;2024-02-21T03:06:38;19.33;;;2.60;;
42186;SDS011;27858;51.414;0.018;2024-02-21T03:09:05;7.03;;;1.80;;
42186;SDS011;27858;51.414;0.018;2024-02-21T03:11:35;4.60;;;2.00;;
42186;SDS011;27858;51.414;0.018;2024-02-21T03:14:03;21.23;;;3.75;;
42186;SDS011;27858;51.414;0.018;2024-02-21T03:16:29;6.25;;;1.65;;
42186;SDS011;27858;51.414;0.018;2024-02-21T03:18:56;10.27;;;3.10;;
42186;SDS011;27858;51.414;0.018;2024-02-21T03:21:23;12.32;;;3.13;;
42186;SDS011;27858;51.414;0.018;2024-02-21T03:23:50;8.65;;;2.50;;
42186;SDS011;27858;51.414;0.018;2024-02-21T03:26:17;19.92;;;3.47;;
42186;SDS011;27858;51.414;0.018;2024-02-21T03:28:44;8.18;;;3.42;;
42186;SDS011;27858;51.414;0.018;2024-02-21T03:31:13;11.93;;;3.00;;
42186;SDS011;27858;51.414;0.018;2024-02-21T03:33:41;10.70;;;2.80;;
42186;SDS011;27858;51.414;0.018;2024-02-21T03:36:14;9.25;;;2.30;;
42186;SDS011;27858;51.414;0.018;2024-02-21T03:38:42;14.30;;;3.35;;
42186;SDS011;27858;51.414;0.018;2024-02-21T03:41:09;7.15;;;2.45;;
42186;SDS011;27858;51.414;0.018;2024-02-21T03:43:37;7.53;;;2.33;;
42186;SDS011;27858;51.414;0.018;2024-02-21T03:46:05;9.38;;;2.70;;
42186;SDS011;27858;51.414;0.018;2024-02-21T03:48:32;11.52;;;2.15;;
42186;SDS011;27858;51.414;0.018;2024-02-21T03:50:59;6.65;;;2.30;;
42186;SDS011;27858;51.414;0.018;2024-02-21T03:53:26;8.43;;;2.08;;
42186;SDS011;27858;51.414;0.018;2024-02-21T03:55:54;5.38;;;1.77;;
42186;SDS011;27858;51.414;0.018;2024-02-21T03:58:21;8.15;;;1.65;;
42186;SDS011;27858;51.414;0.018;2024-02-21T04:00:48;7.57;;;2.78;;
42186;SDS011;27858;51.414;0.018;2024-02-21T04:03:15;15.48;;;2.45;;
42186;SDS011;27858;51.414;0.018;2024-02-21T04:05:42;7.78;;;2.60;;
42186;SDS011;27858;51.414;0.018;2024-02-21T04:08:10;9.65;;;2.22;;
42186;SDS011;27858;51.414;0.018;2024-02-21T04:10:38;11.25;;;2.47;;
42186;SDS011;27858;51.414;0.018;2024-02-21T04:13:08;4.25;;;1.73;;
42186;SDS011;27858;51.414;0.018;2024-02-21T04:15:35;4.82;;;2.45;;
42186;SDS011;27858;51.414;0.018;2024-02-21T04:18:02;13.43;;;2.63;;
42186;SDS011;27858;51.414;0.018;2024-02-21T04:20:29;3.25;;;1.95;;
42186;SDS011;27858;51.414;0.018;2024-02-21T04:22:56;6.78;;;3.22;;
42186;SDS011;27858;51.414;0.018;2024-02-21T04:25:23;6.43;;;1.70;;
42186;SDS011;27858;51.414;0.018;2024-02-21T04:27:50;5.90;;;1.55;;
42186;SDS011;27858;51.414;0.018;2024-02-21T04:30:17;7.10;;;1.73;;
42186;SDS011;27858;51.414;0.018;2024-02-21T04:32:44;6.53;;;2.42;;
42186;SDS011;27858;51.414;0.018;2024-02-21T04:35:11;6.60;;;1.85;;
42186;SDS011;27858;51.414;0.018;2024-02-21T04:37:38;5.78;;;1.80;;
42186;SDS011;27858;51.414;0.018;2024-02-21T04:40:05;12.35;;;2.33;;
42186;SDS011;27858;51.414;0.018;2024-02-21T04:42:32;9.43;;;2.35;;
42186;SDS011;27858;51.414;0.018;2024-02-21T04:44:59;6.07;;;1.67;;
42186;SDS011;27858;51.414;0.018;2024-02-21T04:47:26;2.25;;;1.42;;
42186;SDS011;27858;51.414;0.018;2024-02-21T04:49:54;6.93;;;1.77;;
42186;SDS011;27858;51.414;0.018;2024-02-21T04:52:21;10.68;;;2.22;;
42186;SDS011;27858;51.414;0.018;2024-02-21T04:54:48;3.75;;;1.48;;
42186;SDS011;27858;51.414;0.018;2024-02-21T04:57:15;9.43;;;2.15;;
42186;SDS011;27858;51.414;0.018;2024-02-21T04:59:46;6.15;;;2.40;;
42186;SDS011;27858;51.414;0.018;2024-02-21T05:02:16;6.72;;;1.98;;
42186;SDS011;27858;51.414;0.018;2024-02-21T05:04:43;10.88;;;2.38;;
42186;SDS011;27858;51.414;0.018;2024-02-21T05:07:11;10.38;;;2.30;;
42186;SDS011;27858;51.414;0.018;2024-02-21T05:09:38;7.07;;;1.75;;
42186;SDS011;27858;51.414;0.018;2024-02-21T05:12:05;5.50;;;2.00;;
42186;SDS011;27858;51.414;0.018;2024-02-21T05:14:32;12.43;;;2.35;;
42186;SDS011;27858;51.414;0.018;2024-02-21T05:16:58;15.65;;;2.55;;
42186;SDS011;27858;51.414;0.018;2024-02-21T05:19:26;3.92;;;1.83;;
42186;SDS011;27858;51.414;0.018;2024-02-21T05:21:53;8.48;;;1.65;;
42186;SDS011;27858;51.414;0.018;2024-02-21T05:24:19;6.07;;;1.83;;
42186;SDS011;27858;51.414;0.018;2024-02-21T05:26:46;12.82;;;2.03;;
42186;SDS011;27858;51.414;0.018;2024-02-21T05:29:13;5.90;;;2.35;;
42186;SDS011;27858;51.414;0.018;2024-02-21T05:34:19;2.95;;;1.50;;
42186;SDS011;27858;51.414;0.018;2024-02-21T05:36:48;5.88;;;1.38;;
42186;SDS011;27858;51.414;0.018;2024-02-21T05:39:18;11.68;;;2.00;;
42186;SDS011;27858;51.414;0.018;2024-02-21T05:41:45;10.63;;;1.77;;
42186;SDS011;27858;51.414;0.018;2024-02-21T05:44:12;7.68;;;2.10;;
42186;SDS011;27858;51.414;0.018;2024-02-21T05:46:39;5.32;;;1.80;;
42186;SDS011;27858;51.414;0.018;2024-02-21T05:49:06;3.17;;;0.95;;
42186;SDS011;27858;51.414;0.018;2024-02-21T05:51:33;11.02;;;2.00;;
42186;SDS011;27858;51.414;0.018;2024-02-21T05:54:01;17.80;;;3.13;;
42186;SDS011;27858;51.414;0.018;2024-02-21T05:56:28;5.68;;;1.83;;
42186;SDS011;27858;51.414;0.018;2024-02-21T05:58:54;2.95;;;1.35;;
42186;SDS011;27858;51.414;0.018;2024-02-21T06:01:21;4.22;;;1.33;;
42186;SDS011;27858;51.414;0.018;2024-02-21T06:03:48;8.68;;;2.05;;
42186;SDS011;27858;51.414;0.018;2024-02-21T06:06:16;6.05;;;1.40;;
42186;SDS011;27858;51.414;0.018;2024-02-21T06:08:43;2.40;;;1.13;;
42186;SDS011;27858;51.414;0.018;2024-02-21T06:11:10;5.30;;;1.77;;
42186;SDS011;27858;51.414;0.018;2024-02-21T06:13:39;5.10;;;1.85;;
42186;SDS011;27858;51.414;0.018;2024-02-21T06:16:06;5.55;;;1.20;;
42186;SDS011;27858;51.414;0.018;2024-02-21T06:18:35;8.73;;;1.83;;
42186;SDS011;27858;51.414;0.018;2024-02-21T06:21:02;3.30;;;1.17;;
42186;SDS011;27858;51.414;0.018;2024-02-21T06:23:29;4.18;;;1.17;;
42186;SDS011;27858;51.414;0.018;2024-02-21T06:25:56;4.57;;;0.85;;
42186;SDS011;27858;51.414;0.018;2024-02-21T06:28:23;1.90;;;1.13;;
42186;SDS011;27858;51.414;0.018;2024-02-21T06:30:50;3.60;;;1.15;;
42186;SDS011;27858;51.414;0.018;2024-02-21T06:33:17;6.20;;;1.70;;
42186;SDS011;27858;51.414;0.018;2024-02-21T06:35:44;2.47;;;0.95;;
42186;SDS011;27858;51.414;0.018;2024-02-21T06:38:13;3.92;;;1.33;;
42186;SDS011;27858;51.414;0.018;2024-02-21T06:40:42;3.17;;;0.90;;
42186;SDS011;27858;51.414;0.018;2024-02-21T06:43:16;4.38;;;0.75;;
42186;SDS011;27858;51.414;0.018;2024-02-21T06:45:44;3.30;;;1.10;;
42186;SDS011;27858;51.414;0.018;2024-02-21T06:48:13;3.53;;;1.58;;
42186;SDS011;27858;51.414;0.018;2024-02-21T06:50:40;2.63;;;0.98;;
42186;SDS011;27858;51.414;0.018;2024-02-21T06:53:07;2.83;;;1.42;;
42186;SDS011;27858;51.414;0.018;2024-02-21T06:55:34;3.35;;;0.68;;
42186;SDS011;27858;51.414;0.018;2024-02-21T06:58:01;4.43;;;1.83;;
42186;SDS011;27858;51.414;0.018;2024-02-21T07:00:28;5.05;;;0.90;;
42186;SDS011;27858;51.414;0.018;2024-02-21T07:02:56;3.13;;;1.20;;
42186;SDS011;27858;51.414;0.018;2024-02-21T07:05:23;3.92;;;0.77;;
42186;SDS011;27858;51.414;0.018;2024-02-21T07:07:50;4.55;;;0.82;;
42186;SDS011;27858;51.414;0.018;2024-02-21T07:10:17;4.30;;;1.38;;
42186;SDS011;27858;51.414;0.018;2024-02-21T07:12:44;2.40;;;0.68;;
42186;SDS011;27858;51.414;0.018;2024-02-21T07:15:11;6.65;;;0.73;;
42186;SDS011;27858;51.414;0.018;2024-02-21T07:17:40;1.73;;;0.68;;
42186;SDS011;27858;51.414;0.018;2024-02-21T07:20:07;1.98;;;1.05;;
42186;SDS011;27858;51.414;0.018;2024-02-21T07:22:35;2.42;;;0.70;;
42186;SDS011;27858;51.414;0.018;2024-02-21T07:25:02;0.60;;;0.60;;
42186;SDS011;27858;51.414;0.018;2024-02-21T07:27:32;2.25;;;0.73;;
42186;SDS011;27858;51.414;0.018;2024-02-21T07:30:00;2.08;;;0.95;;
42186;SDS011;27858;51.414;0.018;2024-02-21T07:32:27;2.17;;;1.20;;
42186;SDS011;27858;51.414;0.018;2024-02-21T07:34:54;1.40;;;0.70;;
42186;SDS011;27858;51.414;0.018;2024-02-21T07:37:21;5.00;;;1.35;;
42186;SDS011;27858;51.414;0.018;2024-02-21T07:39:48;4.35;;;0.90;;
42186;SDS011;27858;51.414;0.018;2024-02-21T07:42:15;2.25;;;1.27;;
42186;SDS011;27858;51.414;0.018;2024-02-21T07:44:45;2.38;;;0.85;;
42186;SDS011;27858;51.414;0.018;2024-02-21T07:47:12;3.30;;;1.35;;
42186;SDS011;27858;51.414;0.018;2024-02-21T07:49:44;1.85;;;0.80;;
42186;SDS011;27858;51.414;0.018;2024-02-21T07:52:12;2.38;;;0.90;;
42186;SDS011;27858;51.414;0.018;2024-02-21T07:54:40;7.50;;;1.50;;
42186;SDS011;27858;51.414;0.018;2024-02-21T07:57:07;3.17;;;0.93;;
42186;SDS011;27858;51.414;0.018;2024-02-21T07:59:34;2.95;;;1.40;;
42186;SDS011;27858;51.414;0.018;2024-02-21T08:02:01;2.33;;;1.20;;
42186;SDS011;27858;51.414;0.018;2024-02-21T08:04:29;4.00;;;1.42;;
42186;SDS011;27858;51.414;0.018;2024-02-21T08:06:56;5.00;;;1.75;;
42186;SDS011;27858;51.414;0.018;2024-02-21T08:09:27;3.47;;;1.38;;
42186;SDS011;27858;51.414;0.018;2024-02-21T08:11:54;4.30;;;1.15;;
42186;SDS011;27858;51.414;0.018;2024-02-21T08:14:21;4.10;;;2.05;;
42186;SDS011;27858;51.414;0.018;2024-02-21T08:16:48;7.57;;;1.85;;
42186;SDS011;27858;51.414;0.018;2024-02-21T08:19:15;8.75;;;2.78;;
42186;SDS011;27858;51.414;0.018;2024-02-21T08:21:42;2.90;;;1.60;;
42186;SDS011;27858;51.414;0.018;2024-02-21T08:24:09;8.52;;;2.22;;
42186;SDS011;27858;51.414;0.018;2024-02-21T08:26:39;7.25;;;2.00;;
42186;SDS011;27858;51.414;0.018;2024-02-21T08:29:14;9.43;;;2.00;;
42186;SDS011;27858;51.414;0.018;2024-02-21T08:31:41;3.40;;;1.83;;
42186;SDS011;27858;51.414;0.018;2024-02-21T08:34:08;3.53;;;1.48;;
42186;SDS011;27858;51.414;0.018;2024-02-21T08:36:35;14.40;;;2.15;;
42186;SDS011;27858;51.414;0.018;2024-02-21T08:39:02;8.60;;;2.63;;
42186;SDS011;27858;51.414;0.018;2024-02-21T08:41:31;2.95;;;1.35;;
42186;SDS011;27858;51.414;0.018;2024-02-21T08:44:17;4.25;;;1.30;;
42186;SDS011;27858;51.414;0.018;2024-02-21T08:46:44;4.10;;;2.05;;
42186;SDS011;27858;51.414;0.018;2024-02-21T08:49:11;1.85;;;1.63;;
42186;SDS011;27858;51.414;0.018;2024-02-21T08:51:38;7.30;;;1.58;;
42186;SDS011;27858;51.414;0.018;2024-02-21T08:54:04;8.55;;;2.10;;
42186;SDS011;27858;51.414;0.018;2024-02-21T08:56:32;5.90;;;1.55;;
42186;SDS011;27858;51.414;0.018;2024-02-21T08:58:58;4.22;;;1.88;;
42186;SDS011;27858;51.414;0.018;2024-02-21T09:01:26;5.55;;;1.30;;
42186;SDS011;27858;51.414;0.018;2024-02-21T09:03:53;8.00;;;2.75;;
42186;SDS011;27858;51.414;0.018;2024-02-21T09:06:20;5.18;;;2.28;;
42186;SDS011;27858;51.414;0.018;2024-02-21T09:08:47;8.57;;;2.60;;
42186;SDS011;27858;51.414;0.018;2024-02-21T09:11:14;3.38;;;1.35;;
42186;SDS011;27858;51.414;0.018;2024-02-21T09:13:41;6.50;;;1.55;;
42186;SDS011;27858;51.414;0.018;2024-02-21T09:16:08;2.40;;;1.08;;
42186;SDS011;27858;51.414;0.018;2024-02-21T09:18:35;2.40;;;1.38;;
42186;SDS011;27858;51.414;0.018;2024-02-21T09:21:02;3.10;;;1.38;;
42186;SDS011;27858;51.414;0.018;2024-02-21T09:23:29;5.07;;;1.13;;
42186;SDS011;27858;51.414;0.018;2024-02-21T09:25:58;3.80;;;1.30;;
42186;SDS011;27858;51.414;0.018;2024-02-21T09:28:27;4.28;;;0.93;;
42186;SDS011;27858;51.414;0.018;2024-02-21T09:30:54;2.03;;;1.20;;
42186;SDS011;27858;51.414;0.018;2024-02-21T09:33:21;26.38;;;2.92;;
42186;SDS011;27858;51.414;0.018;2024-02-21T09:35:57;5.00;;;1.35;;
42186;SDS011;27858;51.414;0.018;2024-02-21T09:38:24;5.07;;;1.23;;
42186;SDS011;27858;51.414;0.018;2024-02-21T09:41:06;12.00;;;1.85;;
42186;SDS011;27858;51.414;0.018;2024-02-21T09:46:23;3.78;;;1.10;;
42186;SDS011;27858;51.414;0.018;2024-02-21T09:52:02;5.38;;;1.30;;
42186;SDS011;27858;51.414;0.018;2024-02-21T09:54:33;1.80;;;0.93;;
42186;SDS011;27858;51.414;0.018;2024-02-21T09:57:01;5.72;;;1.20;;
42186;SDS011;27858;51.414;0.018;2024-02-21T09:59:31;3.00;;;1.10;;
42186;SDS011;27858;51.414;0.018;2024-02-21T10:01:59;3.28;;;1.05;;
42186;SDS011;27858;51.414;0.018;2024-02-21T10:04:27;2.83;;;1.00;;
42186;SDS011;27858;51.414;0.018;2024-02-21T10:06:56;2.60;;;1.00;;
42186;SDS011;27858;51.414;0.018;2024-02-21T10:09:24;3.35;;;1.00;;
42186;SDS011;27858;51.414;0.018;2024-02-21T10:12:18;3.17;;;0.68;;
42186;SDS011;27858;51.414;0.018;2024-02-21T10:14:45;2.80;;;0.93;;
42186;SDS011;27858;51.414;0.018;2024-02-21T10:17:16;2.42;;;1.10;;
42186;SDS011;27858;51.414;0.018;2024-02-21T10:19:45;1.30;;;0.75;;
42186;SDS011;27858;51.414;0.018;2024-02-21T10:22:14;4.88;;;0.77;;
42186;SDS011;27858;51.414;0.018;2024-02-21T10:24:42;3.42;;;1.65;;
42186;SDS011;27858;51.414;0.018;2024-02-21T10:27:11;2.40;;;0.63;;
42186;SDS011;27858;51.414;0.018;2024-02-21T10:29:39;3.40;;;0.60;;
42186;SDS011;27858;51.414;0.018;2024-02-21T10:34:35;2.58;;;0.90;;
42186;SDS011;27858;51.414;0.018;2024-02-21T10:37:04;2.38;;;0.60;;
42186;SDS011;27858;51.414;0.018;2024-02-21T10:39:33;2.40;;;1.73;;
42186;SDS011;27858;51.414;0.018;2024-02-21T10:42:02;1.75;;;0.77;;
42186;SDS011;27858;51.414;0.018;2024-02-21T10:44:31;1.75;;;0.80;;
42186;SDS011;27858;51.414;0.018;2024-02-21T10:47:00;2.22;;;0.75;;
42186;SDS011;27858;51.414;0.018;2024-02-21T10:49:40;1.73;;;1.13;;
42186;SDS011;27858;51.414;0.018;2024-02-21T10:54:47;4.88;;;0.80;;
42186;SDS011;27858;51.414;0.018;2024-02-21T10:57:20;1.25;;;0.45;;
42186;SDS011;27858;51.414;0.018;2024-02-21T10:59:48;1.70;;;0.70;;
42186;SDS011;27858;51.414;0.018;2024-02-21T11:02:16;2.55;;;1.08;;
42186;SDS011;27858;51.414;0.018;2024-02-21T11:04:43;3.22;;;0.85;;
42186;SDS011;27858;51.414;0.018;2024-02-21T11:07:12;1.75;;;0.40;;
42186;SDS011;27858;51.414;0.018;2024-02-21T11:09:40;1.48;;;0.73;;
42186;SDS011;27858;51.414;0.018;2024-02-21T11:12:19;1.00;;;0.60;;
42186;SDS011;27858;51.414;0.018;2024-02-21T11:14:50;3.63;;;0.88;;
42186;SDS011;27858;51.414;0.018;2024-02-21T11:17:18;4.15;;;0.70;;
42186;SDS011;27858;51.414;0.018;2024-02-21T11:19:53;1.65;;;0.40;;
42186;SDS011;27858;51.414;0.018;2024-02-21T11:22:20;1.35;;;0.70;;
42186;SDS011;27858;51.414;0.018;2024-02-21T11:24:51;1.52;;;0.35;;
42186;SDS011;27858;51.414;0.018;2024-02-21T11:27:21;0.77;;;0.32;;
42186;SDS011;27858;51.414;0.018;2024-02-21T11:29:55;0.70;;;0.70;;
42186;SDS011;27858;51.414;0.018;2024-02-21T11:32:24;4.65;;;1.17;;
42186;SDS011;27858;51.414;0.018;2024-02-21T11:35:00;2.50;;;0.70;;
42186;SDS011;27858;51.414;0.018;2024-02-21T11:37:29;2.90;;;1.00;;
42186;SDS011;27858;51.414;0.018;2024-02-21T11:40:00;0.85;;;0.40;;
42186;SDS011;27858;51.414;0.018;2024-02-21T11:42:29;1.60;;;0.98;;
42186;SDS011;27858;51.414;0.018;2024-02-21T11:44:57;0.57;;;0.38;;
42186;SDS011;27858;51.414;0.018;2024-02-21T11:47:24;7.97;;;0.95;;
42186;SDS011;27858;51.414;0.018;2024-02-21T11:49:51;1.05;;;0.50;;
42186;SDS011;27858;51.414;0.018;2024-02-21T11:52:21;1.33;;;0.47;;
42186;SDS011;27858;51.414;0.018;2024-02-21T11:54:52;3.50;;;0.70;;
42186;SDS011;27858;51.414;0.018;2024-02-21T11:57:20;1.45;;;0.40;;
42186;SDS011;27858;51.414;0.018;2024-02-21T11:59:47;1.23;;;0.63;;
42186;SDS011;27858;51.414;0.018;2024-02-21T12:02:16;2.85;;;0.70;;
42186;SDS011;27858;51.414;0.018;2024-02-21T12:04:44;2.03;;;0.50;;
42186;SDS011;27858;51.414;0.018;2024-02-21T12:07:11;1.27;;;0.57;;
42186;SDS011;27858;51.414;0.018;2024-02-21T12:09:41;2.72;;;0.40;;
42186;SDS011;27858;51.414;0.018;2024-02-21T12:12:08;3.75;;;1.42;;
42186;SDS011;27858;51.414;0.018;2024-02-21T12:14:35;1.85;;;0.80;;
42186;SDS011;27858;51.414;0.018;2024-02-21T12:17:02;1.15;;;0.52;;
42186;SDS011;27858;51.414;0.018;2024-02-21T12:19:30;0.65;;;0.43;;
42186;SDS011;27858;51.414;0.018;2024-02-21T12:21:59;2.10;;;0.82;;
42186;SDS011;27858;51.414;0.018;2024-02-21T12:24:27;2.63;;;0.63;;
42186;SDS011;27858;51.414;0.018;2024-02-21T12:26:55;0.55;;;0.47;;
42186;SDS011;27858;51.414;0.018;2024-02-21T12:29:23;1.23;;;0.30;;
42186;SDS011;27858;51.414;0.018;2024-02-21T12:31:51;0.60;;;0.32;;
42186;SDS011;27858;51.414;0.018;2024-02-21T12:34:19;0.60;;;0.60;;
42186;SDS011;27858;51.414;0.018;2024-02-21T12:37:03;1.33;;;0.75;;
42186;SDS011;27858;51.414;0.018;2024-02-21T12:39:30;2.97;;;0.60;;
42186;SDS011;27858;51.414;0.018;2024-02-21T12:41:58;1.50;;;0.40;;
42186;SDS011;27858;51.414;0.018;2024-02-21T12:44:26;0.43;;;0.30;;
42186;SDS011;27858;51.414;0.018;2024-02-21T12:46:53;1.25;;;0.90;;
42186;SDS011;27858;51.414;0.018;2024-02-21T12:49:21;3.80;;;0.88;;
42186;SDS011;27858;51.414;0.018;2024-02-21T12:51:48;0.70;;;0.40;;
42186;SDS011;27858;51.414;0.018;2024-02-21T12:54:15;3.10;;;0.65;;
42186;SDS011;27858;51.414;0.018;2024-02-21T12:56:42;2.03;;;0.40;;
42186;SDS011;27858;51.414;0.018;2024-02-21T12:59:09;0.40;;;0.35;;
42186;SDS011;27858;51.414;0.018;2024-02-21T13:01:36;0.82;;;0.70;;
42186;SDS011;27858;51.414;0.018;2024-02-21T13:04:04;0.90;;;0.32;;
42186;SDS011;27858;51.414;0.018;2024-02-21T13:06:32;4.40;;;0.95;;
42186;SDS011;27858;51.414;0.018;2024-02-21T13:08:59;0.85;;;0.40;;
42186;SDS011;27858;51.414;0.018;2024-02-21T13:11:29;2.20;;;0.68;;
42186;SDS011;27858;51.414;0.018;2024-02-21T13:13:58;1.95;;;0.45;;
42186;SDS011;27858;51.414;0.018;2024-02-21T13:16:25;0.40;;;0.40;;
42186;SDS011;27858;51.414;0.018;2024-02-21T13:18:55;2.38;;;0.32;;
42186;SDS011;27858;51.414;0.018;2024-02-21T13:21:22;1.10;;;0.40;;
42186;SDS011;27858;51.414;0.018;2024-02-21T13:23:48;0.70;;;0.10;;
42186;SDS011;27858;51.414;0.018;2024-02-21T13:26:15;0.43;;;0.20;;
42186;SDS011;27858;51.414;0.018;2024-02-21T13:28:42;0.20;;;0.20;;
42186;SDS011;27858;51.414;0.018;2024-02-21T13:31:11;0.77;;;0.40;;
42186;SDS011;27858;51.414;0.018;2024-02-21T13:33:38;2.50;;;0.77;;
42186;SDS011;27858;51.414;0.018;2024-02-21T13:36:05;0.85;;;0.30;;
42186;SDS011;27858;51.414;0.018;2024-02-21T13:38:32;0.57;;;0.38;;
42186;SDS011;27858;51.414;0.018;2024-02-21T13:40:59;0.82;;;0.40;;
42186;SDS011;27858;51.414;0.018;2024-02-21T13:43:27;0.50;;;0.47;;
42186;SDS011;27858;51.414;0.018;2024-02-21T13:45:58;1.27;;;0.40;;
42186;SDS011;27858;51.414;0.018;2024-02-21T13:48:26;0.38;;;0.30;;
42186;SDS011;27858;51.414;0.018;2024-02-21T13:50:53;0.40;;;0.32;;
42186;SDS011;27858;51.414;0.018;2024-02-21T13:53:20;1.52;;;0.30;;
42186;SDS011;27858;51.414;0.018;2024-02-21T13:55:49;0.68;;;0.38;;
42186;SDS011;27858;51.414;0.018;2024-02-21T13:58:16;2.50;;;0.57;;
42186;SDS011;27858;51.414;0.018;2024-02-21T14:00:43;1.58;;;0.68;;
42186;SDS011;27858;51.414;0.018;2024-02-21T14:03:10;0.65;;;0.52;;
42186;SDS011;27858;51.414;0.018;2024-02-21T14:05:37;1.15;;;0.55;;
42186;SDS011;27858;51.414;0.018;2024-02-21T14:08:08;0.47;;;0.30;;
42186;SDS011;27858;51.414;0.018;2024-02-21T14:10:35;0.93;;;0.50;;
42186;SDS011;27858;51.414;0.018;2024-02-21T14:13:03;2.40;;;0.68;;
42186;SDS011;27858;51.414;0.018;2024-02-21T14:15:30;0.98;;;0.30;;
42186;SDS011;27858;51.414;0.018;2024-02-21T14:17:57;0.30;;;0.20;;
42186;SDS011;27858;51.414;0.018;2024-02-21T14:20:24;0.95;;;0.20;;
42186;SDS011;27858;51.414;0.018;2024-02-21T14:22:51;0.82;;;0.30;;
42186;SDS011;27858;51.414;0.018;2024-02-21T14:25:18;1.27;;;0.70;;
42186;SDS011;27858;51.414;0.018;2024-02-21T14:27:45;0.82;;;0.30;;
42186;SDS011;27858;51.414;0.018;2024-02-21T14:30:12;1.92;;;0.95;;
42186;SDS011;27858;51.414;0.018;2024-02-21T14:32:40;2.80;;;0.40;;
42186;SDS011;27858;51.414;0.018;2024-02-21T14:35:10;1.23;;;0.55;;
42186;SDS011;27858;51.414;0.018;2024-02-21T14:37:37;3.72;;;0.75;;
42186;SDS011;27858;51.414;0.018;2024-02-21T14:40:04;3.50;;;0.52;;
42186;SDS011;27858;51.414;0.018;2024-02-21T14:42:32;0.73;;;0.57;;
42186;SDS011;27858;51.414;0.018;2024-02-21T14:44:59;4.85;;;1.35;;
42186;SDS011;27858;51.414;0.018;2024-02-21T14:47:31;1.70;;;0.47;;
42186;SDS011;27858;51.414;0.018;2024-02-21T14:49:58;1.05;;;0.20;;
42186;SDS011;27858;51.414;0.018;2024-02-21T14:52:27;4.57;;;0.82;;
42186;SDS011;27858;51.414;0.018;2024-02-21T14:54:55;0.63;;;0.30;;
42186;SDS011;27858;51.414;0.018;2024-02-21T14:57:22;4.15;;;0.55;;
42186;SDS011;27858;51.414;0.018;2024-02-21T14:59:52;1.65;;;0.80;;
42186;SDS011;27858;51.414;0.018;2024-02-21T15:02:22;2.63;;;0.30;;
42186;SDS011;27858;51.414;0.018;2024-02-21T15:04:49;0.63;;;0.35;;